Terminal Aerodrome Forecast
Issued by NWS Midland/Odessa, TX

Home | Current Version | Previous Version | Text Only | Print | Product List | Glossary On
Versions: 1 2 3 4 5 6 7 8 9 10 11 12
000
FTUS44 KMAF 051120
TAFMAF
TAF
KMAF 051120Z 0512/0612 15007KT P6SM SCT250
     FM051500 16011G19KT P6SM SCT100 SCT250
     FM060200 15009KT P6SM SCT250=

USA.gov is the U.S. government's official web portal to all federal, state and local government web resources and services.